sensor_id;sensor_type;location;lat;lon;timestamp;temperature;humidity
25346;DHT22;13300;51.032;3.710;2022-07-23T00:02:10;18.10;99.90
25346;DHT22;13300;51.032;3.710;2022-07-23T00:04:36;18.10;99.90
25346;DHT22;13300;51.032;3.710;2022-07-23T00:07:01;18.20;99.90
25346;DHT22;13300;51.032;3.710;2022-07-23T00:09:27;18.00;99.90
25346;DHT22;13300;51.032;3.710;2022-07-23T00:11:56;18.00;99.90
25346;DHT22;13300;51.032;3.710;2022-07-23T00:14:21;18.00;99.90
25346;DHT22;13300;51.032;3.710;2022-07-23T00:16:47;17.90;99.90
25346;DHT22;13300;51.032;3.710;2022-07-23T00:19:13;17.90;99.90
25346;DHT22;13300;51.032;3.710;2022-07-23T00:21:39;17.90;99.90
25346;DHT22;13300;51.032;3.710;2022-07-23T00:24:05;17.90;99.90
25346;DHT22;13300;51.032;3.710;2022-07-23T00:26:30;17.80;99.90
25346;DHT22;13300;51.032;3.710;2022-07-23T00:28:56;17.90;99.90
25346;DHT22;13300;51.032;3.710;2022-07-23T00:31:21;17.80;99.90
25346;DHT22;13300;51.032;3.710;2022-07-23T00:33:47;17.80;99.90
25346;DHT22;13300;51.032;3.710;2022-07-23T00:36:13;17.80;99.90
25346;DHT22;13300;51.032;3.710;2022-07-23T00:38:38;17.80;99.90
25346;DHT22;13300;51.032;3.710;2022-07-23T00:41:04;17.60;99.90
25346;DHT22;13300;51.032;3.710;2022-07-23T00:43:30;17.70;99.90
25346;DHT22;13300;51.032;3.710;2022-07-23T00:45:56;17.70;99.90
25346;DHT22;13300;51.032;3.710;2022-07-23T00:48:21;17.70;99.90
25346;DHT22;13300;51.032;3.710;2022-07-23T00:50:47;17.70;99.90
25346;DHT22;13300;51.032;3.710;2022-07-23T00:53:13;17.60;99.90
25346;DHT22;13300;51.032;3.710;2022-07-23T00:55:39;17.60;99.90
25346;DHT22;13300;51.032;3.710;2022-07-23T00:58:05;17.60;99.90
25346;DHT22;13300;51.032;3.710;2022-07-23T01:00:31;17.50;99.90
25346;DHT22;13300;51.032;3.710;2022-07-23T01:02:57;17.50;99.90
25346;DHT22;13300;51.032;3.710;2022-07-23T01:05:23;17.50;99.90
25346;DHT22;13300;51.032;3.710;2022-07-23T01:07:49;17.50;99.90
25346;DHT22;13300;51.032;3.710;2022-07-23T01:10:15;17.50;99.90
25346;DHT22;13300;51.032;3.710;2022-07-23T01:13:08;17.40;99.90
25346;DHT22;13300;51.032;3.710;2022-07-23T01:15:35;17.30;99.90
25346;DHT22;13300;51.032;3.710;2022-07-23T01:18:02;17.30;99.90
25346;DHT22;13300;51.032;3.710;2022-07-23T01:20:28;17.30;99.90
25346;DHT22;13300;51.032;3.710;2022-07-23T01:22:54;17.30;99.90
25346;DHT22;13300;51.032;3.710;2022-07-23T01:25:20;17.20;99.90
25346;DHT22;13300;51.032;3.710;2022-07-23T01:27:47;17.30;99.90
25346;DHT22;13300;51.032;3.710;2022-07-23T01:30:13;17.40;99.90
25346;DHT22;13300;51.032;3.710;2022-07-23T01:32:39;17.30;99.90
25346;DHT22;13300;51.032;3.710;2022-07-23T01:35:05;17.40;99.90
25346;DHT22;13300;51.032;3.710;2022-07-23T01:37:31;17.40;99.90
25346;DHT22;13300;51.032;3.710;2022-07-23T01:39:57;17.30;99.90
25346;DHT22;13300;51.032;3.710;2022-07-23T01:42:23;17.20;99.90
25346;DHT22;13300;51.032;3.710;2022-07-23T01:44:49;17.30;99.90
25346;DHT22;13300;51.032;3.710;2022-07-23T01:47:15;17.30;99.90
25346;DHT22;13300;51.032;3.710;2022-07-23T01:49:40;17.30;99.90
25346;DHT22;13300;51.032;3.710;2022-07-23T01:52:06;17.10;99.90
25346;DHT22;13300;51.032;3.710;2022-07-23T01:54:36;17.10;99.90
25346;DHT22;13300;51.032;3.710;2022-07-23T01:57:02;17.00;99.90
25346;DHT22;13300;51.032;3.710;2022-07-23T01:59:28;17.00;99.90
25346;DHT22;13300;51.032;3.710;2022-07-23T02:01:54;17.00;99.90
25346;DHT22;13300;51.032;3.710;2022-07-23T02:04:21;17.10;99.90
25346;DHT22;13300;51.032;3.710;2022-07-23T02:06:47;17.10;99.90
25346;DHT22;13300;51.032;3.710;2022-07-23T02:09:13;17.20;99.90
25346;DHT22;13300;51.032;3.710;2022-07-23T02:11:39;17.20;99.90
25346;DHT22;13300;51.032;3.710;2022-07-23T02:14:05;17.20;99.90
25346;DHT22;13300;51.032;3.710;2022-07-23T02:16:31;17.20;99.90
25346;DHT22;13300;51.032;3.710;2022-07-23T02:18:56;17.20;99.90
25346;DHT22;13300;51.032;3.710;2022-07-23T02:21:22;17.10;99.90
25346;DHT22;13300;51.032;3.710;2022-07-23T02:23:48;17.10;99.90
25346;DHT22;13300;51.032;3.710;2022-07-23T02:26:13;17.00;99.90
25346;DHT22;13300;51.032;3.710;2022-07-23T02:28:39;17.00;99.90
25346;DHT22;13300;51.032;3.710;2022-07-23T02:31:05;16.90;99.90
25346;DHT22;13300;51.032;3.710;2022-07-23T02:33:32;16.90;99.90
25346;DHT22;13300;51.032;3.710;2022-07-23T02:35:58;16.90;99.90
25346;DHT22;13300;51.032;3.710;2022-07-23T02:38:24;16.90;99.90
25346;DHT22;13300;51.032;3.710;2022-07-23T02:40:49;16.90;99.90
25346;DHT22;13300;51.032;3.710;2022-07-23T02:43:15;16.90;99.90
25346;DHT22;13300;51.032;3.710;2022-07-23T02:45:40;16.90;99.90
25346;DHT22;13300;51.032;3.710;2022-07-23T02:48:06;17.00;99.90
25346;DHT22;13300;51.032;3.710;2022-07-23T02:50:32;16.90;99.90
25346;DHT22;13300;51.032;3.710;2022-07-23T02:52:57;16.90;99.90
25346;DHT22;13300;51.032;3.710;2022-07-23T02:55:23;16.80;99.90
25346;DHT22;13300;51.032;3.710;2022-07-23T02:57:49;16.80;99.90
25346;DHT22;13300;51.032;3.710;2022-07-23T03:00:15;16.80;99.90
25346;DHT22;13300;51.032;3.710;2022-07-23T03:02:40;16.80;99.90
25346;DHT22;13300;51.032;3.710;2022-07-23T03:05:06;16.80;99.90
25346;DHT22;13300;51.032;3.710;2022-07-23T03:07:32;16.80;99.90
25346;DHT22;13300;51.032;3.710;2022-07-23T03:09:58;16.80;99.90
25346;DHT22;13300;51.032;3.710;2022-07-23T03:12:23;16.70;99.90
25346;DHT22;13300;51.032;3.710;2022-07-23T03:14:49;16.80;99.90
25346;DHT22;13300;51.032;3.710;2022-07-23T03:17:15;16.80;99.90
25346;DHT22;13300;51.032;3.710;2022-07-23T03:19:41;16.70;99.90
25346;DHT22;13300;51.032;3.710;2022-07-23T03:22:07;16.70;99.90
25346;DHT22;13300;51.032;3.710;2022-07-23T03:24:33;16.70;99.90
25346;DHT22;13300;51.032;3.710;2022-07-23T03:27:17;16.70;99.90
25346;DHT22;13300;51.032;3.710;2022-07-23T03:29:42;16.70;99.90
25346;DHT22;13300;51.032;3.710;2022-07-23T03:32:08;16.70;99.90
25346;DHT22;13300;51.032;3.710;2022-07-23T03:34:35;16.70;99.90
25346;DHT22;13300;51.032;3.710;2022-07-23T03:37:01;16.60;99.90
25346;DHT22;13300;51.032;3.710;2022-07-23T03:39:27;16.60;99.90
25346;DHT22;13300;51.032;3.710;2022-07-23T03:41:53;16.60;99.90
25346;DHT22;13300;51.032;3.710;2022-07-23T03:44:18;16.60;99.90
25346;DHT22;13300;51.032;3.710;2022-07-23T03:46:44;16.50;99.90
25346;DHT22;13300;51.032;3.710;2022-07-23T03:49:09;16.50;99.90
25346;DHT22;13300;51.032;3.710;2022-07-23T03:51:35;16.60;99.90
25346;DHT22;13300;51.032;3.710;2022-07-23T03:54:01;16.60;99.90
25346;DHT22;13300;51.032;3.710;2022-07-23T03:56:26;16.60;99.90
25346;DHT22;13300;51.032;3.710;2022-07-23T03:58:52;16.50;99.90
25346;DHT22;13300;51.032;3.710;2022-07-23T04:01:18;16.50;99.90
25346;DHT22;13300;51.032;3.710;2022-07-23T04:03:43;16.40;99.90
25346;DHT22;13300;51.032;3.710;2022-07-23T04:06:09;16.50;99.90
25346;DHT22;13300;51.032;3.710;2022-07-23T04:08:35;16.50;99.90
25346;DHT22;13300;51.032;3.710;2022-07-23T04:11:00;16.50;99.90
25346;DHT22;13300;51.032;3.710;2022-07-23T04:13:26;16.50;99.90
25346;DHT22;13300;51.032;3.710;2022-07-23T04:15:52;16.60;99.90
25346;DHT22;13300;51.032;3.710;2022-07-23T04:18:17;16.50;99.90
25346;DHT22;13300;51.032;3.710;2022-07-23T04:20:44;16.50;99.90
25346;DHT22;13300;51.032;3.710;2022-07-23T04:23:09;16.60;99.90
25346;DHT22;13300;51.032;3.710;2022-07-23T04:25:36;16.60;99.90
25346;DHT22;13300;51.032;3.710;2022-07-23T04:28:02;16.70;99.90
25346;DHT22;13300;51.032;3.710;2022-07-23T04:30:27;16.80;99.90
25346;DHT22;13300;51.032;3.710;2022-07-23T04:32:53;16.80;99.90
25346;DHT22;13300;51.032;3.710;2022-07-23T04:35:19;16.80;99.90
25346;DHT22;13300;51.032;3.710;2022-07-23T04:37:45;16.80;99.90
25346;DHT22;13300;51.032;3.710;2022-07-23T04:40:12;16.80;99.90
25346;DHT22;13300;51.032;3.710;2022-07-23T04:42:37;16.80;99.90
25346;DHT22;13300;51.032;3.710;2022-07-23T04:45:04;16.80;99.90
25346;DHT22;13300;51.032;3.710;2022-07-23T04:47:30;16.80;99.90
25346;DHT22;13300;51.032;3.710;2022-07-23T04:49:56;16.80;99.90
25346;DHT22;13300;51.032;3.710;2022-07-23T04:52:22;16.80;99.90
25346;DHT22;13300;51.032;3.710;2022-07-23T04:54:48;16.80;99.90
25346;DHT22;13300;51.032;3.710;2022-07-23T04:57:14;16.90;99.90
25346;DHT22;13300;51.032;3.710;2022-07-23T04:59:39;17.00;99.90
25346;DHT22;13300;51.032;3.710;2022-07-23T05:02:05;16.90;99.90
25346;DHT22;13300;51.032;3.710;2022-07-23T05:04:30;17.00;99.90
25346;DHT22;13300;51.032;3.710;2022-07-23T05:06:57;17.10;99.90
25346;DHT22;13300;51.032;3.710;2022-07-23T05:09:23;17.10;99.90
25346;DHT22;13300;51.032;3.710;2022-07-23T05:11:49;17.20;99.90
25346;DHT22;13300;51.032;3.710;2022-07-23T05:14:14;17.20;99.90
25346;DHT22;13300;51.032;3.710;2022-07-23T05:16:40;17.30;99.90
25346;DHT22;13300;51.032;3.710;2022-07-23T05:19:06;17.40;99.90
25346;DHT22;13300;51.032;3.710;2022-07-23T05:21:31;17.40;99.90
25346;DHT22;13300;51.032;3.710;2022-07-23T05:23:57;17.60;99.90
25346;DHT22;13300;51.032;3.710;2022-07-23T05:26:23;17.70;99.90
25346;DHT22;13300;51.032;3.710;2022-07-23T05:28:49;17.80;99.90
25346;DHT22;13300;51.032;3.710;2022-07-23T05:31:15;17.90;99.90
25346;DHT22;13300;51.032;3.710;2022-07-23T05:33:41;18.10;99.90
25346;DHT22;13300;51.032;3.710;2022-07-23T05:36:07;18.40;99.90
25346;DHT22;13300;51.032;3.710;2022-07-23T05:38:33;18.60;99.90
25346;DHT22;13300;51.032;3.710;2022-07-23T05:40:59;18.80;99.90
25346;DHT22;13300;51.032;3.710;2022-07-23T05:43:24;19.10;99.90
25346;DHT22;13300;51.032;3.710;2022-07-23T05:45:50;19.40;99.90
25346;DHT22;13300;51.032;3.710;2022-07-23T05:48:16;19.70;99.90
25346;DHT22;13300;51.032;3.710;2022-07-23T05:50:41;19.80;99.90
25346;DHT22;13300;51.032;3.710;2022-07-23T05:53:07;19.70;99.90
25346;DHT22;13300;51.032;3.710;2022-07-23T05:55:33;19.70;99.90
25346;DHT22;13300;51.032;3.710;2022-07-23T05:58:00;19.50;99.90
25346;DHT22;13300;51.032;3.710;2022-07-23T06:00:26;19.40;99.90
25346;DHT22;13300;51.032;3.710;2022-07-23T06:02:52;19.40;99.90
25346;DHT22;13300;51.032;3.710;2022-07-23T06:05:18;19.40;99.90
25346;DHT22;13300;51.032;3.710;2022-07-23T06:07:43;19.40;99.90
25346;DHT22;13300;51.032;3.710;2022-07-23T06:10:10;19.30;99.90
25346;DHT22;13300;51.032;3.710;2022-07-23T06:12:36;19.30;99.90
25346;DHT22;13300;51.032;3.710;2022-07-23T06:15:02;19.30;99.90
25346;DHT22;13300;51.032;3.710;2022-07-23T06:17:29;19.30;99.90
25346;DHT22;13300;51.032;3.710;2022-07-23T06:19:55;19.40;99.90
25346;DHT22;13300;51.032;3.710;2022-07-23T06:22:21;19.40;99.90
25346;DHT22;13300;51.032;3.710;2022-07-23T06:24:47;19.40;99.90
25346;DHT22;13300;51.032;3.710;2022-07-23T06:27:13;19.30;99.90
25346;DHT22;13300;51.032;3.710;2022-07-23T06:29:39;19.30;99.90
25346;DHT22;13300;51.032;3.710;2022-07-23T06:32:06;19.40;99.90
25346;DHT22;13300;51.032;3.710;2022-07-23T06:34:32;19.40;99.90
25346;DHT22;13300;51.032;3.710;2022-07-23T06:36:59;19.50;99.90
25346;DHT22;13300;51.032;3.710;2022-07-23T06:39:24;19.60;99.90
25346;DHT22;13300;51.032;3.710;2022-07-23T06:41:50;19.70;99.90
25346;DHT22;13300;51.032;3.710;2022-07-23T06:44:16;19.60;99.90
25346;DHT22;13300;51.032;3.710;2022-07-23T06:46:41;19.80;99.90
25346;DHT22;13300;51.032;3.710;2022-07-23T06:49:07;19.80;99.90
25346;DHT22;13300;51.032;3.710;2022-07-23T06:51:33;20.00;99.90
25346;DHT22;13300;51.032;3.710;2022-07-23T06:53:59;20.10;99.90
25346;DHT22;13300;51.032;3.710;2022-07-23T06:56:24;20.20;99.90
25346;DHT22;13300;51.032;3.710;2022-07-23T06:58:50;20.20;99.90
25346;DHT22;13300;51.032;3.710;2022-07-23T07:01:16;20.30;99.90
25346;DHT22;13300;51.032;3.710;2022-07-23T07:03:42;20.50;99.90
25346;DHT22;13300;51.032;3.710;2022-07-23T07:06:08;20.70;99.90
25346;DHT22;13300;51.032;3.710;2022-07-23T07:08:33;21.00;99.90
25346;DHT22;13300;51.032;3.710;2022-07-23T07:10:59;21.10;99.90
25346;DHT22;13300;51.032;3.710;2022-07-23T07:13:25;21.20;99.90
25346;DHT22;13300;51.032;3.710;2022-07-23T07:15:50;21.30;99.90
25346;DHT22;13300;51.032;3.710;2022-07-23T07:18:16;21.70;99.90
25346;DHT22;13300;51.032;3.710;2022-07-23T07:20:42;21.80;99.90
25346;DHT22;13300;51.032;3.710;2022-07-23T07:23:08;22.20;99.90
25346;DHT22;13300;51.032;3.710;2022-07-23T07:25:33;22.80;99.90
25346;DHT22;13300;51.032;3.710;2022-07-23T07:27:59;23.30;99.90
25346;DHT22;13300;51.032;3.710;2022-07-23T07:30:25;23.80;99.90
25346;DHT22;13300;51.032;3.710;2022-07-23T07:32:50;24.40;99.90
25346;DHT22;13300;51.032;3.710;2022-07-23T07:35:16;24.90;99.90
25346;DHT22;13300;51.032;3.710;2022-07-23T07:37:42;25.40;99.90
25346;DHT22;13300;51.032;3.710;2022-07-23T07:40:08;26.20;99.90
25346;DHT22;13300;51.032;3.710;2022-07-23T07:42:33;26.30;99.90
25346;DHT22;13300;51.032;3.710;2022-07-23T07:44:59;26.30;99.90
25346;DHT22;13300;51.032;3.710;2022-07-23T07:47:25;26.30;99.90
25346;DHT22;13300;51.032;3.710;2022-07-23T07:49:51;27.10;99.90
25346;DHT22;13300;51.032;3.710;2022-07-23T07:52:17;28.20;99.90
25346;DHT22;13300;51.032;3.710;2022-07-23T07:54:42;28.80;99.90
25346;DHT22;13300;51.032;3.710;2022-07-23T07:57:09;28.80;99.90
25346;DHT22;13300;51.032;3.710;2022-07-23T07:59:34;28.30;99.90
25346;DHT22;13300;51.032;3.710;2022-07-23T08:02:00;27.90;99.80
25346;DHT22;13300;51.032;3.710;2022-07-23T08:04:26;27.50;99.90
25346;DHT22;13300;51.032;3.710;2022-07-23T08:06:51;27.10;99.90
25346;DHT22;13300;51.032;3.710;2022-07-23T08:09:17;27.00;99.90
25346;DHT22;13300;51.032;3.710;2022-07-23T08:11:43;26.60;99.90
25346;DHT22;13300;51.032;3.710;2022-07-23T08:14:08;25.90;99.90
25346;DHT22;13300;51.032;3.710;2022-07-23T08:16:36;25.70;99.90
25346;DHT22;13300;51.032;3.710;2022-07-23T08:19:02;25.80;99.90
25346;DHT22;13300;51.032;3.710;2022-07-23T08:21:27;25.80;99.90
25346;DHT22;13300;51.032;3.710;2022-07-23T08:23:53;25.40;99.90
25346;DHT22;13300;51.032;3.710;2022-07-23T08:26:19;25.50;99.90
25346;DHT22;13300;51.032;3.710;2022-07-23T08:28:44;25.70;99.90
25346;DHT22;13300;51.032;3.710;2022-07-23T08:31:10;25.80;99.90
25346;DHT22;13300;51.032;3.710;2022-07-23T08:33:37;26.10;99.90
25346;DHT22;13300;51.032;3.710;2022-07-23T08:36:04;26.80;99.90
25346;DHT22;13300;51.032;3.710;2022-07-23T08:38:31;27.70;99.90
25346;DHT22;13300;51.032;3.710;2022-07-23T08:40:57;28.80;98.30
25346;DHT22;13300;51.032;3.710;2022-07-23T08:43:25;29.80;96.80
25346;DHT22;13300;51.032;3.710;2022-07-23T08:45:53;30.60;95.40
25346;DHT22;13300;51.032;3.710;2022-07-23T08:48:23;31.20;94.50
25346;DHT22;13300;51.032;3.710;2022-07-23T08:50:51;31.10;94.10
25346;DHT22;13300;51.032;3.710;2022-07-23T08:53:18;30.80;93.50
25346;DHT22;13300;51.032;3.710;2022-07-23T08:55:50;30.50;93.90
25346;DHT22;13300;51.032;3.710;2022-07-23T08:58:17;30.50;92.90
25346;DHT22;13300;51.032;3.710;2022-07-23T09:00:43;30.20;93.10
25346;DHT22;13300;51.032;3.710;2022-07-23T09:03:17;30.20;93.80
25346;DHT22;13300;51.032;3.710;2022-07-23T09:05:43;30.20;93.30
25346;DHT22;13300;51.032;3.710;2022-07-23T09:08:16;30.60;92.90
25346;DHT22;13300;51.032;3.710;2022-07-23T09:10:55;30.60;90.80
25346;DHT22;13300;51.032;3.710;2022-07-23T09:16:19;31.50;90.50
25346;DHT22;13300;51.032;3.710;2022-07-23T09:18:54;32.00;90.40
25346;DHT22;13300;51.032;3.710;2022-07-23T09:21:24;32.60;86.60
25346;DHT22;13300;51.032;3.710;2022-07-23T09:24:01;33.10;85.10
25346;DHT22;13300;51.032;3.710;2022-07-23T09:26:45;33.60;84.10
25346;DHT22;13300;51.032;3.710;2022-07-23T09:29:21;33.80;81.20
25346;DHT22;13300;51.032;3.710;2022-07-23T09:31:52;34.00;81.80
25346;DHT22;13300;51.032;3.710;2022-07-23T09:34:19;34.10;80.80
25346;DHT22;13300;51.032;3.710;2022-07-23T09:36:46;34.20;80.70
25346;DHT22;13300;51.032;3.710;2022-07-23T09:39:13;33.80;78.50
25346;DHT22;13300;51.032;3.710;2022-07-23T09:41:44;33.30;80.90
25346;DHT22;13300;51.032;3.710;2022-07-23T09:44:15;33.40;82.70
25346;DHT22;13300;51.032;3.710;2022-07-23T09:46:42;33.70;79.70
25346;DHT22;13300;51.032;3.710;2022-07-23T09:49:27;33.40;80.10
25346;DHT22;13300;51.032;3.710;2022-07-23T09:51:56;32.40;81.60
25346;DHT22;13300;51.032;3.710;2022-07-23T09:54:29;31.40;83.60
25346;DHT22;13300;51.032;3.710;2022-07-23T09:56:58;31.30;84.70
25346;DHT22;13300;51.032;3.710;2022-07-23T09:59:32;31.30;84.60
25346;DHT22;13300;51.032;3.710;2022-07-23T10:01:59;32.00;82.00
25346;DHT22;13300;51.032;3.710;2022-07-23T10:04:27;32.30;79.90
25346;DHT22;13300;51.032;3.710;2022-07-23T10:06:55;32.80;81.00
25346;DHT22;13300;51.032;3.710;2022-07-23T10:09:32;33.40;78.60
25346;DHT22;13300;51.032;3.710;2022-07-23T10:12:01;33.80;77.30
25346;DHT22;13300;51.032;3.710;2022-07-23T10:14:34;34.60;76.60
25346;DHT22;13300;51.032;3.710;2022-07-23T10:17:02;35.30;72.80
25346;DHT22;13300;51.032;3.710;2022-07-23T10:19:29;34.90;74.20
25346;DHT22;13300;51.032;3.710;2022-07-23T10:22:01;34.80;75.10
25346;DHT22;13300;51.032;3.710;2022-07-23T10:38:33;35.50;69.80
25346;DHT22;13300;51.032;3.710;2022-07-23T10:41:04;35.90;69.00
25346;DHT22;13300;51.032;3.710;2022-07-23T10:43:30;35.40;69.70
25346;DHT22;13300;51.032;3.710;2022-07-23T10:46:20;35.30;69.10
25346;DHT22;13300;51.032;3.710;2022-07-23T10:48:42;35.60;68.80
25346;DHT22;13300;51.032;3.710;2022-07-23T10:51:16;34.70;70.90
25346;DHT22;13300;51.032;3.710;2022-07-23T10:59:22;34.70;70.50
25346;DHT22;13300;51.032;3.710;2022-07-23T11:01:48;34.40;69.80
25346;DHT22;13300;51.032;3.710;2022-07-23T11:04:13;34.40;70.50
25346;DHT22;13300;51.032;3.710;2022-07-23T11:09:42;35.00;69.20
25346;DHT22;13300;51.032;3.710;2022-07-23T11:15:12;35.50;68.60
25346;DHT22;13300;51.032;3.710;2022-07-23T11:17:59;35.90;68.30
25346;DHT22;13300;51.032;3.710;2022-07-23T11:20:28;35.70;67.80
25346;DHT22;13300;51.032;3.710;2022-07-23T11:22:58;35.70;69.00
25346;DHT22;13300;51.032;3.710;2022-07-23T11:27:53;35.90;66.10
25346;DHT22;13300;51.032;3.710;2022-07-23T11:35:42;35.80;66.10
25346;DHT22;13300;51.032;3.710;2022-07-23T11:40:37;35.80;66.40
25346;DHT22;13300;51.032;3.710;2022-07-23T11:43:08;36.20;67.20
25346;DHT22;13300;51.032;3.710;2022-07-23T11:45:43;36.50;64.50
25346;DHT22;13300;51.032;3.710;2022-07-23T11:48:19;36.60;66.80
25346;DHT22;13300;51.032;3.710;2022-07-23T11:50:46;36.90;65.00
25346;DHT22;13300;51.032;3.710;2022-07-23T11:53:13;36.50;65.40
25346;DHT22;13300;51.032;3.710;2022-07-23T11:55:39;35.50;65.60
25346;DHT22;13300;51.032;3.710;2022-07-23T11:58:04;34.80;69.10
25346;DHT22;13300;51.032;3.710;2022-07-23T12:00:31;34.50;69.70
25346;DHT22;13300;51.032;3.710;2022-07-23T12:02:59;34.00;69.10
25346;DHT22;13300;51.032;3.710;2022-07-23T12:05:36;33.90;71.90
25346;DHT22;13300;51.032;3.710;2022-07-23T12:08:11;34.60;71.10
25346;DHT22;13300;51.032;3.710;2022-07-23T12:10:42;35.40;70.00
25346;DHT22;13300;51.032;3.710;2022-07-23T12:13:18;35.70;68.10
25346;DHT22;13300;51.032;3.710;2022-07-23T12:15:52;35.90;67.60
25346;DHT22;13300;51.032;3.710;2022-07-23T12:18:23;36.40;68.10
25346;DHT22;13300;51.032;3.710;2022-07-23T12:20:53;36.40;66.00
25346;DHT22;13300;51.032;3.710;2022-07-23T12:23:19;36.10;66.30
25346;DHT22;13300;51.032;3.710;2022-07-23T12:25:48;36.40;67.40
25346;DHT22;13300;51.032;3.710;2022-07-23T12:28:27;37.10;65.80
25346;DHT22;13300;51.032;3.710;2022-07-23T12:30:54;37.60;65.20
25346;DHT22;13300;51.032;3.710;2022-07-23T12:33:27;37.70;65.20
25346;DHT22;13300;51.032;3.710;2022-07-23T12:35:56;36.70;64.50
25346;DHT22;13300;51.032;3.710;2022-07-23T12:38:25;36.00;67.30
25346;DHT22;13300;51.032;3.710;2022-07-23T12:40:59;35.40;67.30
25346;DHT22;13300;51.032;3.710;2022-07-23T12:43:39;34.60;69.90
25346;DHT22;13300;51.032;3.710;2022-07-23T12:46:19;33.80;70.10
25346;DHT22;13300;51.032;3.710;2022-07-23T12:51:28;32.70;75.00
25346;DHT22;13300;51.032;3.710;2022-07-23T12:53:57;32.70;75.40
25346;DHT22;13300;51.032;3.710;2022-07-23T12:56:31;32.70;73.00
25346;DHT22;13300;51.032;3.710;2022-07-23T13:01:33;33.20;73.70
25346;DHT22;13300;51.032;3.710;2022-07-23T13:04:07;33.20;74.10
25346;DHT22;13300;51.032;3.710;2022-07-23T13:06:35;34.00;73.70
25346;DHT22;13300;51.032;3.710;2022-07-23T13:09:03;34.80;74.10
25346;DHT22;13300;51.032;3.710;2022-07-23T13:11:30;35.30;71.10
25346;DHT22;13300;51.032;3.710;2022-07-23T13:13:56;36.00;68.90
25346;DHT22;13300;51.032;3.710;2022-07-23T13:16:22;36.30;67.80
25346;DHT22;13300;51.032;3.710;2022-07-23T13:18:48;36.20;68.60
25346;DHT22;13300;51.032;3.710;2022-07-23T13:21:13;36.00;66.90
25346;DHT22;13300;51.032;3.710;2022-07-23T13:23:39;35.90;67.00
25346;DHT22;13300;51.032;3.710;2022-07-23T13:26:05;35.40;69.10
25346;DHT22;13300;51.032;3.710;2022-07-23T13:28:31;35.60;70.40
25346;DHT22;13300;51.032;3.710;2022-07-23T13:30:56;36.10;70.00
25346;DHT22;13300;51.032;3.710;2022-07-23T13:33:23;36.20;67.00
25346;DHT22;13300;51.032;3.710;2022-07-23T13:35:51;36.50;67.40
25346;DHT22;13300;51.032;3.710;2022-07-23T13:38:18;36.90;68.40
25346;DHT22;13300;51.032;3.710;2022-07-23T13:40:47;37.40;66.80
25346;DHT22;13300;51.032;3.710;2022-07-23T13:43:15;37.40;65.30
25346;DHT22;13300;51.032;3.710;2022-07-23T13:45:42;37.70;67.70
25346;DHT22;13300;51.032;3.710;2022-07-23T13:48:08;37.90;64.50
25346;DHT22;13300;51.032;3.710;2022-07-23T13:50:35;37.10;63.90
25346;DHT22;13300;51.032;3.710;2022-07-23T13:53:05;36.60;64.60
25346;DHT22;13300;51.032;3.710;2022-07-23T13:55:32;35.50;69.00
25346;DHT22;13300;51.032;3.710;2022-07-23T13:57:58;35.30;68.20
25346;DHT22;13300;51.032;3.710;2022-07-23T14:00:25;35.40;70.20
25346;DHT22;13300;51.032;3.710;2022-07-23T14:02:51;35.10;67.90
25346;DHT22;13300;51.032;3.710;2022-07-23T14:05:16;35.00;69.00
25346;DHT22;13300;51.032;3.710;2022-07-23T14:07:42;35.10;69.70
25346;DHT22;13300;51.032;3.710;2022-07-23T14:10:10;35.10;69.00
25346;DHT22;13300;51.032;3.710;2022-07-23T14:12:36;34.90;68.20
25346;DHT22;13300;51.032;3.710;2022-07-23T14:15:03;34.40;69.00
25346;DHT22;13300;51.032;3.710;2022-07-23T14:17:29;34.40;70.40
25346;DHT22;13300;51.032;3.710;2022-07-23T14:19:55;34.70;69.20
25346;DHT22;13300;51.032;3.710;2022-07-23T14:22:21;34.80;70.30
25346;DHT22;13300;51.032;3.710;2022-07-23T14:24:47;34.30;69.80
25346;DHT22;13300;51.032;3.710;2022-07-23T14:27:13;34.00;70.80
25346;DHT22;13300;51.032;3.710;2022-07-23T14:29:39;34.30;71.90
25346;DHT22;13300;51.032;3.710;2022-07-23T14:32:05;34.10;69.30
25346;DHT22;13300;51.032;3.710;2022-07-23T14:34:30;33.20;74.00
25346;DHT22;13300;51.032;3.710;2022-07-23T14:36:58;33.40;71.80
25346;DHT22;13300;51.032;3.710;2022-07-23T14:39:24;33.40;72.60
25346;DHT22;13300;51.032;3.710;2022-07-23T14:41:50;33.60;73.80
25346;DHT22;13300;51.032;3.710;2022-07-23T14:44:16;34.40;72.70
25346;DHT22;13300;51.032;3.710;2022-07-23T14:46:42;35.00;72.10
25346;DHT22;13300;51.032;3.710;2022-07-23T14:49:07;35.50;69.70
25346;DHT22;13300;51.032;3.710;2022-07-23T14:51:33;35.60;69.70
25346;DHT22;13300;51.032;3.710;2022-07-23T14:53:59;35.80;70.80
25346;DHT22;13300;51.032;3.710;2022-07-23T14:56:25;35.80;68.40
25346;DHT22;13300;51.032;3.710;2022-07-23T14:58:50;35.40;68.60
25346;DHT22;13300;51.032;3.710;2022-07-23T15:01:16;34.90;70.40
25346;DHT22;13300;51.032;3.710;2022-07-23T15:03:42;34.90;70.40
25346;DHT22;13300;51.032;3.710;2022-07-23T15:06:07;35.10;70.10
25346;DHT22;13300;51.032;3.710;2022-07-23T15:08:33;35.50;69.10
25346;DHT22;13300;51.032;3.710;2022-07-23T15:10:59;35.90;67.60
25346;DHT22;13300;51.032;3.710;2022-07-23T15:13:25;36.20;69.20
25346;DHT22;13300;51.032;3.710;2022-07-23T15:15:50;36.30;67.80
25346;DHT22;13300;51.032;3.710;2022-07-23T15:18:16;36.10;66.40
25346;DHT22;13300;51.032;3.710;2022-07-23T15:20:42;35.40;67.20
25346;DHT22;13300;51.032;3.710;2022-07-23T15:23:08;34.60;69.60
25346;DHT22;13300;51.032;3.710;2022-07-23T15:25:34;34.30;71.90
25346;DHT22;13300;51.032;3.710;2022-07-23T15:27:59;34.50;71.10
25346;DHT22;13300;51.032;3.710;2022-07-23T15:30:26;34.30;69.60
25346;DHT22;13300;51.032;3.710;2022-07-23T15:32:52;33.30;71.70
25346;DHT22;13300;51.032;3.710;2022-07-23T15:35:19;32.60;73.40
25346;DHT22;13300;51.032;3.710;2022-07-23T15:37:45;32.50;74.70
25346;DHT22;13300;51.032;3.710;2022-07-23T15:40:11;33.20;72.90
25346;DHT22;13300;51.032;3.710;2022-07-23T15:42:37;33.10;72.70
25346;DHT22;13300;51.032;3.710;2022-07-23T15:45:03;32.10;74.40
25346;DHT22;13300;51.032;3.710;2022-07-23T15:47:29;31.70;76.10
25346;DHT22;13300;51.032;3.710;2022-07-23T15:49:55;31.80;76.20
25346;DHT22;13300;51.032;3.710;2022-07-23T15:52:20;32.80;75.10
25346;DHT22;13300;51.032;3.710;2022-07-23T15:54:46;33.20;73.60
25346;DHT22;13300;51.032;3.710;2022-07-23T15:57:12;33.90;71.90
25346;DHT22;13300;51.032;3.710;2022-07-23T15:59:38;34.20;73.30
25346;DHT22;13300;51.032;3.710;2022-07-23T16:02:04;34.90;71.40
25346;DHT22;13300;51.032;3.710;2022-07-23T16:04:30;35.40;69.60
25346;DHT22;13300;51.032;3.710;2022-07-23T16:06:56;35.10;70.00
25346;DHT22;13300;51.032;3.710;2022-07-23T16:09:22;35.50;71.10
25346;DHT22;13300;51.032;3.710;2022-07-23T16:11:48;35.70;68.60
25346;DHT22;13300;51.032;3.710;2022-07-23T16:14:13;35.60;71.30